sensor_id;sensor_type;location;lat;lon;timestamp;P1;durP1;ratioP1;P2;durP2;ratioP2
2728;SDS011;1372;47.956;7.830;2024-01-30T00:01:49;1.90;;;1.70;;
2728;SDS011;1372;47.956;7.830;2024-01-30T00:04:20;2.10;;;1.57;;
2728;SDS011;1372;47.956;7.830;2024-01-30T00:06:51;1.23;;;1.13;;
2728;SDS011;1372;47.956;7.830;2024-01-30T00:09:20;1.70;;;1.40;;
2728;SDS011;1372;47.956;7.830;2024-01-30T00:11:49;1.33;;;1.23;;
2728;SDS011;1372;47.956;7.830;2024-01-30T00:14:18;1.50;;;1.40;;
2728;SDS011;1372;47.956;7.830;2024-01-30T00:16:48;1.07;;;1.07;;
2728;SDS011;1372;47.956;7.830;2024-01-30T00:19:17;1.87;;;1.50;;
2728;SDS011;1372;47.956;7.830;2024-01-30T00:21:46;2.67;;;1.80;;
2728;SDS011;1372;47.956;7.830;2024-01-30T00:24:15;1.60;;;1.50;;
2728;SDS011;1372;47.956;7.830;2024-01-30T00:26:45;2.57;;;1.70;;
2728;SDS011;1372;47.956;7.830;2024-01-30T00:29:13;1.37;;;1.27;;
2728;SDS011;1372;47.956;7.830;2024-01-30T00:31:46;1.60;;;1.47;;
2728;SDS011;1372;47.956;7.830;2024-01-30T00:34:15;1.43;;;1.20;;
2728;SDS011;1372;47.956;7.830;2024-01-30T00:36:44;1.70;;;1.50;;
2728;SDS011;1372;47.956;7.830;2024-01-30T00:39:14;2.63;;;1.43;;
2728;SDS011;1372;47.956;7.830;2024-01-30T00:41:43;1.50;;;1.40;;
2728;SDS011;1372;47.956;7.830;2024-01-30T00:44:12;1.50;;;1.30;;
2728;SDS011;1372;47.956;7.830;2024-01-30T00:46:40;1.20;;;1.10;;
2728;SDS011;1372;47.956;7.830;2024-01-30T00:49:10;2.10;;;1.33;;
2728;SDS011;1372;47.956;7.830;2024-01-30T00:51:39;1.73;;;1.60;;
2728;SDS011;1372;47.956;7.830;2024-01-30T00:54:12;1.37;;;1.27;;
2728;SDS011;1372;47.956;7.830;2024-01-30T00:56:41;2.70;;;1.50;;
2728;SDS011;1372;47.956;7.830;2024-01-30T00:59:10;1.53;;;0.93;;
2728;SDS011;1372;47.956;7.830;2024-01-30T01:01:40;1.50;;;1.43;;
2728;SDS011;1372;47.956;7.830;2024-01-30T01:04:09;1.30;;;1.20;;
2728;SDS011;1372;47.956;7.830;2024-01-30T01:06:37;1.30;;;1.20;;
2728;SDS011;1372;47.956;7.830;2024-01-30T01:09:09;1.57;;;1.23;;
2728;SDS011;1372;47.956;7.830;2024-01-30T01:11:42;2.43;;;1.77;;
2728;SDS011;1372;47.956;7.830;2024-01-30T01:14:13;2.23;;;1.83;;
2728;SDS011;1372;47.956;7.830;2024-01-30T01:16:42;2.10;;;2.00;;
2728;SDS011;1372;47.956;7.830;2024-01-30T01:19:12;1.50;;;1.40;;
2728;SDS011;1372;47.956;7.830;2024-01-30T01:21:42;2.23;;;1.70;;
2728;SDS011;1372;47.956;7.830;2024-01-30T01:24:11;1.83;;;1.57;;
2728;SDS011;1372;47.956;7.830;2024-01-30T01:26:40;1.20;;;1.10;;
2728;SDS011;1372;47.956;7.830;2024-01-30T01:29:11;1.57;;;1.30;;
2728;SDS011;1372;47.956;7.830;2024-01-30T01:31:40;1.53;;;1.37;;
2728;SDS011;1372;47.956;7.830;2024-01-30T01:34:10;1.70;;;1.60;;
2728;SDS011;1372;47.956;7.830;2024-01-30T01:36:40;1.43;;;1.33;;
2728;SDS011;1372;47.956;7.830;2024-01-30T01:39:09;1.10;;;1.10;;
2728;SDS011;1372;47.956;7.830;2024-01-30T01:41:38;2.03;;;1.90;;
2728;SDS011;1372;47.956;7.830;2024-01-30T01:44:08;2.83;;;1.73;;
2728;SDS011;1372;47.956;7.830;2024-01-30T01:46:37;2.67;;;1.40;;
2728;SDS011;1372;47.956;7.830;2024-01-30T01:49:06;1.77;;;1.67;;
2728;SDS011;1372;47.956;7.830;2024-01-30T01:51:36;1.93;;;1.40;;
2728;SDS011;1372;47.956;7.830;2024-01-30T01:54:08;3.93;;;1.40;;
2728;SDS011;1372;47.956;7.830;2024-01-30T01:56:37;1.53;;;1.43;;
2728;SDS011;1372;47.956;7.830;2024-01-30T01:59:08;1.37;;;1.30;;
2728;SDS011;1372;47.956;7.830;2024-01-30T02:01:39;1.67;;;1.57;;
2728;SDS011;1372;47.956;7.830;2024-01-30T02:04:10;1.47;;;1.37;;
2728;SDS011;1372;47.956;7.830;2024-01-30T02:06:39;1.70;;;1.60;;
2728;SDS011;1372;47.956;7.830;2024-01-30T02:09:08;1.60;;;1.50;;
2728;SDS011;1372;47.956;7.830;2024-01-30T02:11:37;1.60;;;1.47;;
2728;SDS011;1372;47.956;7.830;2024-01-30T02:14:11;1.60;;;1.33;;
2728;SDS011;1372;47.956;7.830;2024-01-30T02:16:40;1.57;;;1.47;;
2728;SDS011;1372;47.956;7.830;2024-01-30T02:19:09;1.73;;;1.63;;
2728;SDS011;1372;47.956;7.830;2024-01-30T02:21:43;2.20;;;1.77;;
2728;SDS011;1372;47.956;7.830;2024-01-30T02:24:13;1.30;;;1.20;;
2728;SDS011;1372;47.956;7.830;2024-01-30T02:26:44;1.93;;;1.57;;
2728;SDS011;1372;47.956;7.830;2024-01-30T02:29:13;1.80;;;1.47;;
2728;SDS011;1372;47.956;7.830;2024-01-30T02:31:44;1.97;;;1.83;;
2728;SDS011;1372;47.956;7.830;2024-01-30T02:34:13;2.17;;;1.27;;
2728;SDS011;1372;47.956;7.830;2024-01-30T02:36:44;2.70;;;1.90;;
2728;SDS011;1372;47.956;7.830;2024-01-30T02:39:12;1.60;;;1.50;;
2728;SDS011;1372;47.956;7.830;2024-01-30T02:41:41;1.80;;;1.70;;
2728;SDS011;1372;47.956;7.830;2024-01-30T02:44:10;2.70;;;1.80;;
2728;SDS011;1372;47.956;7.830;2024-01-30T02:46:39;3.63;;;1.60;;
2728;SDS011;1372;47.956;7.830;2024-01-30T02:49:08;3.20;;;1.97;;
2728;SDS011;1372;47.956;7.830;2024-01-30T02:51:37;2.83;;;2.23;;
2728;SDS011;1372;47.956;7.830;2024-01-30T02:54:07;3.23;;;2.93;;
2728;SDS011;1372;47.956;7.830;2024-01-30T02:56:36;2.00;;;1.47;;
2728;SDS011;1372;47.956;7.830;2024-01-30T02:59:05;1.90;;;1.50;;
2728;SDS011;1372;47.956;7.830;2024-01-30T03:01:41;1.97;;;1.73;;
2728;SDS011;1372;47.956;7.830;2024-01-30T03:04:12;1.93;;;1.50;;
2728;SDS011;1372;47.956;7.830;2024-01-30T03:06:44;2.60;;;1.70;;
2728;SDS011;1372;47.956;7.830;2024-01-30T03:09:16;2.50;;;1.80;;
2728;SDS011;1372;47.956;7.830;2024-01-30T03:11:46;1.43;;;1.33;;
2728;SDS011;1372;47.956;7.830;2024-01-30T03:14:15;1.90;;;1.77;;
2728;SDS011;1372;47.956;7.830;2024-01-30T03:16:46;2.97;;;1.70;;
2728;SDS011;1372;47.956;7.830;2024-01-30T03:19:17;1.90;;;1.73;;
2728;SDS011;1372;47.956;7.830;2024-01-30T03:21:46;2.60;;;1.80;;
2728;SDS011;1372;47.956;7.830;2024-01-30T03:24:16;2.03;;;1.80;;
2728;SDS011;1372;47.956;7.830;2024-01-30T03:26:45;2.43;;;1.60;;
2728;SDS011;1372;47.956;7.830;2024-01-30T03:29:16;4.10;;;1.80;;
2728;SDS011;1372;47.956;7.830;2024-01-30T03:31:46;2.13;;;1.57;;
2728;SDS011;1372;47.956;7.830;2024-01-30T03:34:14;3.13;;;1.57;;
2728;SDS011;1372;47.956;7.830;2024-01-30T03:36:43;1.83;;;1.70;;
2728;SDS011;1372;47.956;7.830;2024-01-30T03:39:12;2.10;;;2.00;;
2728;SDS011;1372;47.956;7.830;2024-01-30T03:41:43;2.50;;;2.30;;
2728;SDS011;1372;47.956;7.830;2024-01-30T03:44:12;1.87;;;1.60;;
2728;SDS011;1372;47.956;7.830;2024-01-30T03:46:41;2.00;;;1.73;;
2728;SDS011;1372;47.956;7.830;2024-01-30T03:49:10;2.87;;;1.60;;
2728;SDS011;1372;47.956;7.830;2024-01-30T03:51:39;2.60;;;1.67;;
2728;SDS011;1372;47.956;7.830;2024-01-30T03:54:07;2.30;;;1.50;;
2728;SDS011;1372;47.956;7.830;2024-01-30T03:56:39;2.50;;;1.43;;
2728;SDS011;1372;47.956;7.830;2024-01-30T03:59:09;2.30;;;1.50;;
2728;SDS011;1372;47.956;7.830;2024-01-30T04:01:38;2.23;;;1.87;;
2728;SDS011;1372;47.956;7.830;2024-01-30T04:04:07;2.87;;;1.70;;
2728;SDS011;1372;47.956;7.830;2024-01-30T04:06:37;1.93;;;1.77;;
2728;SDS011;1372;47.956;7.830;2024-01-30T04:09:06;1.63;;;1.53;;
2728;SDS011;1372;47.956;7.830;2024-01-30T04:11:35;2.60;;;1.40;;
2728;SDS011;1372;47.956;7.830;2024-01-30T04:14:04;2.00;;;1.90;;
2728;SDS011;1372;47.956;7.830;2024-01-30T04:16:37;2.00;;;1.90;;
2728;SDS011;1372;47.956;7.830;2024-01-30T04:19:06;2.40;;;2.20;;
2728;SDS011;1372;47.956;7.830;2024-01-30T04:21:35;2.07;;;1.87;;
2728;SDS011;1372;47.956;7.830;2024-01-30T04:24:04;1.90;;;1.80;;
2728;SDS011;1372;47.956;7.830;2024-01-30T04:26:34;2.57;;;1.83;;
2728;SDS011;1372;47.956;7.830;2024-01-30T04:29:04;2.33;;;2.10;;
2728;SDS011;1372;47.956;7.830;2024-01-30T04:31:33;2.60;;;1.97;;
2728;SDS011;1372;47.956;7.830;2024-01-30T04:34:05;2.00;;;1.70;;
2728;SDS011;1372;47.956;7.830;2024-01-30T04:36:34;2.13;;;1.90;;
2728;SDS011;1372;47.956;7.830;2024-01-30T04:39:03;2.60;;;2.00;;
2728;SDS011;1372;47.956;7.830;2024-01-30T04:41:33;2.50;;;1.50;;
2728;SDS011;1372;47.956;7.830;2024-01-30T04:44:02;2.17;;;1.70;;
2728;SDS011;1372;47.956;7.830;2024-01-30T04:46:31;2.00;;;1.90;;
2728;SDS011;1372;47.956;7.830;2024-01-30T04:49:02;1.80;;;1.53;;
2728;SDS011;1372;47.956;7.830;2024-01-30T04:51:32;2.33;;;2.13;;
2728;SDS011;1372;47.956;7.830;2024-01-30T04:54:01;2.07;;;1.87;;
2728;SDS011;1372;47.956;7.830;2024-01-30T04:56:33;2.60;;;2.10;;
2728;SDS011;1372;47.956;7.830;2024-01-30T04:59:03;2.30;;;2.10;;
2728;SDS011;1372;47.956;7.830;2024-01-30T05:01:35;2.50;;;1.70;;
2728;SDS011;1372;47.956;7.830;2024-01-30T05:04:06;2.57;;;1.87;;
2728;SDS011;1372;47.956;7.830;2024-01-30T05:06:38;3.77;;;2.10;;
2728;SDS011;1372;47.956;7.830;2024-01-30T05:09:07;3.27;;;2.20;;
2728;SDS011;1372;47.956;7.830;2024-01-30T05:11:36;3.47;;;2.37;;
2728;SDS011;1372;47.956;7.830;2024-01-30T05:14:06;1.60;;;1.50;;
2728;SDS011;1372;47.956;7.830;2024-01-30T05:16:35;2.70;;;2.50;;
2728;SDS011;1372;47.956;7.830;2024-01-30T05:19:06;2.10;;;1.90;;
2728;SDS011;1372;47.956;7.830;2024-01-30T05:21:35;2.10;;;1.90;;
2728;SDS011;1372;47.956;7.830;2024-01-30T05:24:04;2.47;;;2.27;;
2728;SDS011;1372;47.956;7.830;2024-01-30T05:26:34;3.00;;;2.70;;
2728;SDS011;1372;47.956;7.830;2024-01-30T05:29:03;2.00;;;1.87;;
2728;SDS011;1372;47.956;7.830;2024-01-30T05:31:32;2.43;;;2.10;;
2728;SDS011;1372;47.956;7.830;2024-01-30T05:34:02;2.97;;;2.00;;
2728;SDS011;1372;47.956;7.830;2024-01-30T05:36:32;1.90;;;1.80;;
2728;SDS011;1372;47.956;7.830;2024-01-30T05:39:03;12.47;;;9.07;;
2728;SDS011;1372;47.956;7.830;2024-01-30T05:41:37;10.83;;;8.27;;
2728;SDS011;1372;47.956;7.830;2024-01-30T05:44:06;11.90;;;8.93;;
2728;SDS011;1372;47.956;7.830;2024-01-30T05:46:36;3.43;;;3.13;;
2728;SDS011;1372;47.956;7.830;2024-01-30T05:49:04;2.20;;;2.00;;
2728;SDS011;1372;47.956;7.830;2024-01-30T05:51:35;3.47;;;2.70;;
2728;SDS011;1372;47.956;7.830;2024-01-30T05:54:03;4.80;;;3.20;;
2728;SDS011;1372;47.956;7.830;2024-01-30T05:56:32;2.73;;;2.43;;
2728;SDS011;1372;47.956;7.830;2024-01-30T05:59:04;2.83;;;2.00;;
2728;SDS011;1372;47.956;7.830;2024-01-30T06:01:33;2.20;;;2.00;;
2728;SDS011;1372;47.956;7.830;2024-01-30T06:04:02;2.53;;;2.33;;
2728;SDS011;1372;47.956;7.830;2024-01-30T06:06:32;2.03;;;1.93;;
2728;SDS011;1372;47.956;7.830;2024-01-30T06:09:05;2.40;;;2.20;;
2728;SDS011;1372;47.956;7.830;2024-01-30T06:11:54;2.47;;;2.27;;
2728;SDS011;1372;47.956;7.830;2024-01-30T06:14:23;3.00;;;2.30;;
2728;SDS011;1372;47.956;7.830;2024-01-30T06:17:11;2.33;;;2.13;;
2728;SDS011;1372;47.956;7.830;2024-01-30T06:19:41;5.43;;;3.00;;
2728;SDS011;1372;47.956;7.830;2024-01-30T06:22:29;14.80;;;11.30;;
2728;SDS011;1372;47.956;7.830;2024-01-30T06:25:00;11.33;;;8.80;;
2728;SDS011;1372;47.956;7.830;2024-01-30T06:27:36;6.13;;;4.73;;
2728;SDS011;1372;47.956;7.830;2024-01-30T06:30:25;5.20;;;3.53;;
2728;SDS011;1372;47.956;7.830;2024-01-30T06:33:13;3.27;;;2.83;;
2728;SDS011;1372;47.956;7.830;2024-01-30T06:36:00;3.23;;;2.90;;
2728;SDS011;1372;47.956;7.830;2024-01-30T06:38:31;5.93;;;4.00;;
2728;SDS011;1372;47.956;7.830;2024-01-30T06:40:59;5.07;;;3.67;;
2728;SDS011;1372;47.956;7.830;2024-01-30T06:43:28;4.10;;;3.50;;
2728;SDS011;1372;47.956;7.830;2024-01-30T06:45:57;5.37;;;3.30;;
2728;SDS011;1372;47.956;7.830;2024-01-30T06:48:30;3.73;;;3.13;;
2728;SDS011;1372;47.956;7.830;2024-01-30T06:51:01;3.27;;;2.93;;
2728;SDS011;1372;47.956;7.830;2024-01-30T06:53:32;4.00;;;3.20;;
2728;SDS011;1372;47.956;7.830;2024-01-30T06:56:19;4.10;;;2.83;;
2728;SDS011;1372;47.956;7.830;2024-01-30T06:59:10;5.10;;;3.00;;
2728;SDS011;1372;47.956;7.830;2024-01-30T07:01:38;3.50;;;2.77;;
2728;SDS011;1372;47.956;7.830;2024-01-30T07:04:07;4.23;;;2.43;;
2728;SDS011;1372;47.956;7.830;2024-01-30T07:06:36;4.93;;;4.23;;
2728;SDS011;1372;47.956;7.830;2024-01-30T07:09:07;4.60;;;4.20;;
2728;SDS011;1372;47.956;7.830;2024-01-30T07:11:36;4.53;;;4.10;;
2728;SDS011;1372;47.956;7.830;2024-01-30T07:14:07;9.57;;;7.33;;
2728;SDS011;1372;47.956;7.830;2024-01-30T07:16:37;8.63;;;7.17;;
2728;SDS011;1372;47.956;7.830;2024-01-30T07:19:10;6.77;;;5.20;;
2728;SDS011;1372;47.956;7.830;2024-01-30T07:21:39;4.70;;;4.30;;
2728;SDS011;1372;47.956;7.830;2024-01-30T07:24:11;10.93;;;9.10;;
2728;SDS011;1372;47.956;7.830;2024-01-30T07:26:40;8.17;;;7.37;;
2728;SDS011;1372;47.956;7.830;2024-01-30T07:29:09;3.60;;;3.30;;
2728;SDS011;1372;47.956;7.830;2024-01-30T07:31:38;3.30;;;2.80;;
2728;SDS011;1372;47.956;7.830;2024-01-30T07:34:07;3.70;;;3.40;;
2728;SDS011;1372;47.956;7.830;2024-01-30T07:36:40;2.60;;;2.37;;
2728;SDS011;1372;47.956;7.830;2024-01-30T07:39:11;3.60;;;2.90;;
2728;SDS011;1372;47.956;7.830;2024-01-30T07:41:40;6.37;;;3.43;;
2728;SDS011;1372;47.956;7.830;2024-01-30T07:44:09;3.90;;;3.57;;
2728;SDS011;1372;47.956;7.830;2024-01-30T07:46:42;3.33;;;3.03;;
2728;SDS011;1372;47.956;7.830;2024-01-30T07:49:11;3.90;;;3.30;;
2728;SDS011;1372;47.956;7.830;2024-01-30T07:51:41;4.10;;;3.80;;
2728;SDS011;1372;47.956;7.830;2024-01-30T07:54:13;3.77;;;2.37;;
2728;SDS011;1372;47.956;7.830;2024-01-30T07:56:42;3.90;;;3.33;;
2728;SDS011;1372;47.956;7.830;2024-01-30T07:59:11;3.17;;;2.93;;
2728;SDS011;1372;47.956;7.830;2024-01-30T08:01:41;3.37;;;2.90;;
2728;SDS011;1372;47.956;7.830;2024-01-30T08:04:10;3.53;;;3.23;;
2728;SDS011;1372;47.956;7.830;2024-01-30T08:06:39;4.60;;;3.17;;
2728;SDS011;1372;47.956;7.830;2024-01-30T08:09:10;5.00;;;3.00;;
2728;SDS011;1372;47.956;7.830;2024-01-30T08:11:40;4.00;;;2.70;;
2728;SDS011;1372;47.956;7.830;2024-01-30T08:14:09;3.53;;;3.20;;
2728;SDS011;1372;47.956;7.830;2024-01-30T08:16:38;2.97;;;2.70;;
2728;SDS011;1372;47.956;7.830;2024-01-30T08:19:07;3.47;;;3.17;;
2728;SDS011;1372;47.956;7.830;2024-01-30T08:21:40;5.10;;;3.17;;
2728;SDS011;1372;47.956;7.830;2024-01-30T08:24:09;6.40;;;4.47;;
2728;SDS011;1372;47.956;7.830;2024-01-30T08:26:40;3.00;;;2.70;;
2728;SDS011;1372;47.956;7.830;2024-01-30T08:29:09;3.10;;;2.77;;
2728;SDS011;1372;47.956;7.830;2024-01-30T08:31:40;3.67;;;3.10;;
2728;SDS011;1372;47.956;7.830;2024-01-30T08:34:09;4.50;;;3.10;;
2728;SDS011;1372;47.956;7.830;2024-01-30T08:36:38;5.07;;;2.80;;
2728;SDS011;1372;47.956;7.830;2024-01-30T08:39:07;3.40;;;3.10;;
2728;SDS011;1372;47.956;7.830;2024-01-30T08:41:36;2.80;;;2.60;;
2728;SDS011;1372;47.956;7.830;2024-01-30T08:44:07;3.33;;;2.93;;
2728;SDS011;1372;47.956;7.830;2024-01-30T08:46:37;3.10;;;2.83;;
2728;SDS011;1372;47.956;7.830;2024-01-30T08:49:06;2.97;;;2.77;;
2728;SDS011;1372;47.956;7.830;2024-01-30T08:51:38;4.50;;;3.20;;
2728;SDS011;1372;47.956;7.830;2024-01-30T08:54:08;3.57;;;3.17;;
2728;SDS011;1372;47.956;7.830;2024-01-30T08:56:37;3.33;;;3.00;;
2728;SDS011;1372;47.956;7.830;2024-01-30T08:59:07;4.37;;;3.27;;
2728;SDS011;1372;47.956;7.830;2024-01-30T09:01:37;3.30;;;3.00;;
2728;SDS011;1372;47.956;7.830;2024-01-30T09:04:08;4.40;;;3.00;;
2728;SDS011;1372;47.956;7.830;2024-01-30T09:06:37;3.73;;;3.43;;
2728;SDS011;1372;47.956;7.830;2024-01-30T09:09:06;5.27;;;4.77;;
2728;SDS011;1372;47.956;7.830;2024-01-30T09:11:35;7.90;;;6.40;;
2728;SDS011;1372;47.956;7.830;2024-01-30T09:14:04;7.30;;;6.50;;
2728;SDS011;1372;47.956;7.830;2024-01-30T09:16:34;7.93;;;6.47;;
2728;SDS011;1372;47.956;7.830;2024-01-30T09:19:03;4.87;;;3.90;;
2728;SDS011;1372;47.956;7.830;2024-01-30T09:21:34;5.67;;;4.80;;
2728;SDS011;1372;47.956;7.830;2024-01-30T09:24:06;7.30;;;4.70;;
2728;SDS011;1372;47.956;7.830;2024-01-30T09:26:35;5.03;;;4.53;;
2728;SDS011;1372;47.956;7.830;2024-01-30T09:29:04;6.70;;;5.97;;
2728;SDS011;1372;47.956;7.830;2024-01-30T09:31:34;6.30;;;5.30;;
2728;SDS011;1372;47.956;7.830;2024-01-30T09:34:03;8.07;;;6.37;;
2728;SDS011;1372;47.956;7.830;2024-01-30T09:36:33;6.07;;;4.33;;
2728;SDS011;1372;47.956;7.830;2024-01-30T09:39:07;4.20;;;3.80;;
2728;SDS011;1372;47.956;7.830;2024-01-30T09:41:36;4.27;;;3.47;;
2728;SDS011;1372;47.956;7.830;2024-01-30T09:44:16;4.10;;;3.70;;
2728;SDS011;1372;47.956;7.830;2024-01-30T09:46:48;3.90;;;3.43;;
2728;SDS011;1372;47.956;7.830;2024-01-30T09:49:19;4.27;;;3.87;;
2728;SDS011;1372;47.956;7.830;2024-01-30T09:51:48;4.00;;;3.50;;
2728;SDS011;1372;47.956;7.830;2024-01-30T09:54:18;6.10;;;3.20;;
2728;SDS011;1372;47.956;7.830;2024-01-30T09:56:50;4.60;;;3.77;;
2728;SDS011;1372;47.956;7.830;2024-01-30T09:59:18;3.33;;;3.03;;
2728;SDS011;1372;47.956;7.830;2024-01-30T10:01:49;3.97;;;3.57;;
2728;SDS011;1372;47.956;7.830;2024-01-30T10:04:19;3.90;;;3.43;;
2728;SDS011;1372;47.956;7.830;2024-01-30T10:06:48;3.00;;;2.80;;
2728;SDS011;1372;47.956;7.830;2024-01-30T10:09:18;4.30;;;3.27;;
2728;SDS011;1372;47.956;7.830;2024-01-30T10:11:48;3.90;;;3.50;;
2728;SDS011;1372;47.956;7.830;2024-01-30T10:14:21;3.70;;;3.40;;
2728;SDS011;1372;47.956;7.830;2024-01-30T10:16:55;4.23;;;3.83;;
2728;SDS011;1372;47.956;7.830;2024-01-30T10:19:25;5.80;;;4.10;;
2728;SDS011;1372;47.956;7.830;2024-01-30T10:21:54;4.07;;;3.27;;
2728;SDS011;1372;47.956;7.830;2024-01-30T10:24:25;3.70;;;3.40;;
2728;SDS011;1372;47.956;7.830;2024-01-30T10:26:56;4.17;;;3.33;;
2728;SDS011;1372;47.956;7.830;2024-01-30T10:29:26;5.10;;;3.70;;
2728;SDS011;1372;47.956;7.830;2024-01-30T10:31:59;4.23;;;3.53;;
2728;SDS011;1372;47.956;7.830;2024-01-30T10:34:29;4.67;;;3.73;;
2728;SDS011;1372;47.956;7.830;2024-01-30T10:36:59;3.90;;;3.40;;
2728;SDS011;1372;47.956;7.830;2024-01-30T10:39:41;4.47;;;3.33;;
2728;SDS011;1372;47.956;7.830;2024-01-30T10:42:11;4.10;;;3.70;;
2728;SDS011;1372;47.956;7.830;2024-01-30T10:44:44;3.13;;;2.83;;
2728;SDS011;1372;47.956;7.830;2024-01-30T10:47:27;3.40;;;3.10;;
2728;SDS011;1372;47.956;7.830;2024-01-30T10:49:58;3.73;;;2.80;;
2728;SDS011;1372;47.956;7.830;2024-01-30T10:52:28;3.17;;;2.67;;
2728;SDS011;1372;47.956;7.830;2024-01-30T10:54:58;3.10;;;2.80;;
2728;SDS011;1372;47.956;7.830;2024-01-30T10:57:32;3.60;;;2.77;;
2728;SDS011;1372;47.956;7.830;2024-01-30T11:00:06;3.23;;;2.93;;
2728;SDS011;1372;47.956;7.830;2024-01-30T11:02:39;2.97;;;2.30;;
2728;SDS011;1372;47.956;7.830;2024-01-30T11:05:12;3.83;;;2.17;;
2728;SDS011;1372;47.956;7.830;2024-01-30T11:07:42;3.43;;;2.80;;
2728;SDS011;1372;47.956;7.830;2024-01-30T11:10:11;3.20;;;2.30;;
2728;SDS011;1372;47.956;7.830;2024-01-30T11:12:45;2.43;;;2.23;;
2728;SDS011;1372;47.956;7.830;2024-01-30T11:15:17;3.20;;;2.80;;
2728;SDS011;1372;47.956;7.830;2024-01-30T11:17:51;2.73;;;2.53;;
2728;SDS011;1372;47.956;7.830;2024-01-30T11:20:22;3.10;;;2.70;;
2728;SDS011;1372;47.956;7.830;2024-01-30T11:22:55;2.60;;;2.40;;
2728;SDS011;1372;47.956;7.830;2024-01-30T11:25:25;3.40;;;2.50;;
2728;SDS011;1372;47.956;7.830;2024-01-30T11:27:54;5.33;;;3.53;;
2728;SDS011;1372;47.956;7.830;2024-01-30T11:30:24;2.87;;;2.17;;
2728;SDS011;1372;47.956;7.830;2024-01-30T11:32:59;2.20;;;2.00;;
2728;SDS011;1372;47.956;7.830;2024-01-30T11:35:34;2.40;;;2.20;;
2728;SDS011;1372;47.956;7.830;2024-01-30T11:38:04;2.50;;;2.30;;
2728;SDS011;1372;47.956;7.830;2024-01-30T11:40:34;2.50;;;2.30;;
2728;SDS011;1372;47.956;7.830;2024-01-30T11:43:05;3.23;;;2.33;;
2728;SDS011;1372;47.956;7.830;2024-01-30T11:45:35;2.63;;;2.43;;
2728;SDS011;1372;47.956;7.830;2024-01-30T11:48:07;3.67;;;2.07;;
2728;SDS011;1372;47.956;7.830;2024-01-30T11:50:37;2.53;;;1.97;;
2728;SDS011;1372;47.956;7.830;2024-01-30T11:53:10;4.37;;;2.23;;
2728;SDS011;1372;47.956;7.830;2024-01-30T11:55:39;2.53;;;2.33;;
2728;SDS011;1372;47.956;7.830;2024-01-30T11:58:08;2.20;;;2.07;;
2728;SDS011;1372;47.956;7.830;2024-01-30T12:00:37;5.13;;;2.60;;
2728;SDS011;1372;47.956;7.830;2024-01-30T12:03:07;2.63;;;2.43;;
2728;SDS011;1372;47.956;7.830;2024-01-30T12:05:39;2.47;;;2.27;;
2728;SDS011;1372;47.956;7.830;2024-01-30T12:08:14;2.63;;;2.43;;
2728;SDS011;1372;47.956;7.830;2024-01-30T12:10:43;3.27;;;2.90;;
2728;SDS011;1372;47.956;7.830;2024-01-30T12:13:12;3.17;;;2.40;;
2728;SDS011;1372;47.956;7.830;2024-01-30T12:15:43;3.33;;;2.27;;
2728;SDS011;1372;47.956;7.830;2024-01-30T12:18:13;4.27;;;3.30;;
2728;SDS011;1372;47.956;7.830;2024-01-30T12:20:42;2.93;;;2.73;;
2728;SDS011;1372;47.956;7.830;2024-01-30T12:23:12;4.37;;;3.07;;
2728;SDS011;1372;47.956;7.830;2024-01-30T12:25:41;3.00;;;2.70;;
2728;SDS011;1372;47.956;7.830;2024-01-30T12:28:10;3.97;;;2.83;;
2728;SDS011;1372;47.956;7.830;2024-01-30T12:30:40;2.90;;;2.63;;
2728;SDS011;1372;47.956;7.830;2024-01-30T12:33:09;4.23;;;3.83;;
2728;SDS011;1372;47.956;7.830;2024-01-30T12:35:46;3.47;;;3.17;;
2728;SDS011;1372;47.956;7.830;2024-01-30T12:38:22;6.90;;;3.60;;
2728;SDS011;1372;47.956;7.830;2024-01-30T12:40:54;3.10;;;2.80;;
2728;SDS011;1372;47.956;7.830;2024-01-30T12:43:25;5.43;;;3.43;;
2728;SDS011;1372;47.956;7.830;2024-01-30T12:46:02;3.10;;;2.80;;
2728;SDS011;1372;47.956;7.830;2024-01-30T12:48:34;3.97;;;3.03;;
2728;SDS011;1372;47.956;7.830;2024-01-30T12:51:03;3.53;;;2.90;;
2728;SDS011;1372;47.956;7.830;2024-01-30T12:53:32;3.93;;;3.27;;
2728;SDS011;1372;47.956;7.830;2024-01-30T12:56:01;4.43;;;3.47;;
2728;SDS011;1372;47.956;7.830;2024-01-30T12:58:31;3.77;;;3.27;;
2728;SDS011;1372;47.956;7.830;2024-01-30T13:01:03;2.90;;;2.67;;
2728;SDS011;1372;47.956;7.830;2024-01-30T13:03:34;3.00;;;2.70;;
2728;SDS011;1372;47.956;7.830;2024-01-30T13:06:04;3.20;;;2.87;;
2728;SDS011;1372;47.956;7.830;2024-01-30T13:08:33;2.93;;;2.60;;
2728;SDS011;1372;47.956;7.830;2024-01-30T13:11:02;3.10;;;2.80;;
2728;SDS011;1372;47.956;7.830;2024-01-30T13:13:31;3.80;;;3.37;;
2728;SDS011;1372;47.956;7.830;2024-01-30T13:16:00;6.10;;;3.23;;
2728;SDS011;1372;47.956;7.830;2024-01-30T13:18:30;3.60;;;3.10;;
2728;SDS011;1372;47.956;7.830;2024-01-30T13:21:01;3.67;;;3.23;;
2728;SDS011;1372;47.956;7.830;2024-01-30T13:23:30;5.10;;;3.63;;
2728;SDS011;1372;47.956;7.830;2024-01-30T13:26:03;4.27;;;3.30;;
2728;SDS011;1372;47.956;7.830;2024-01-30T13:28:33;3.90;;;3.50;;
2728;SDS011;1372;47.956;7.830;2024-01-30T13:31:02;3.97;;;3.17;;
2728;SDS011;1372;47.956;7.830;2024-01-30T13:33:32;4.47;;;3.07;;
2728;SDS011;1372;47.956;7.830;2024-01-30T13:36:04;4.20;;;2.77;;
2728;SDS011;1372;47.956;7.830;2024-01-30T13:38:33;4.63;;;4.07;;
2728;SDS011;1372;47.956;7.830;2024-01-30T13:41:03;3.40;;;3.10;;
2728;SDS011;1372;47.956;7.830;2024-01-30T13:43:35;3.77;;;3.47;;
2728;SDS011;1372;47.956;7.830;2024-01-30T13:46:04;5.27;;;3.43;;
2728;SDS011;1372;47.956;7.830;2024-01-30T13:48:33;3.70;;;2.97;;
2728;SDS011;1372;47.956;7.830;2024-01-30T13:51:06;3.70;;;3.20;;
2728;SDS011;1372;47.956;7.830;2024-01-30T13:53:35;5.70;;;3.17;;
2728;SDS011;1372;47.956;7.830;2024-01-30T13:56:04;4.17;;;2.37;;
2728;SDS011;1372;47.956;7.830;2024-01-30T13:58:34;3.13;;;2.83;;
2728;SDS011;1372;47.956;7.830;2024-01-30T14:01:04;3.17;;;2.87;;
2728;SDS011;1372;47.956;7.830;2024-01-30T14:03:34;4.23;;;2.67;;
2728;SDS011;1372;47.956;7.830;2024-01-30T14:06:04;3.70;;;3.20;;
2728;SDS011;1372;47.956;7.830;2024-01-30T14:08:36;3.87;;;3.57;;
2728;SDS011;1372;47.956;7.830;2024-01-30T14:11:05;6.93;;;3.70;;
2728;SDS011;1372;47.956;7.830;2024-01-30T14:13:35;3.13;;;2.87;;
2728;SDS011;1372;47.956;7.830;2024-01-30T14:16:04;3.90;;;3.60;;
2728;SDS011;1372;47.956;7.830;2024-01-30T14:18:34;4.53;;;4.03;;
2728;SDS011;1372;47.956;7.830;2024-01-30T14:21:03;5.40;;;4.60;;
2728;SDS011;1372;47.956;7.830;2024-01-30T14:23:34;5.87;;;5.27;;
2728;SDS011;1372;47.956;7.830;2024-01-30T14:26:04;6.57;;;5.20;;
2728;SDS011;1372;47.956;7.830;2024-01-30T14:28:33;8.10;;;7.30;;
2728;SDS011;1372;47.956;7.830;2024-01-30T14:31:02;7.90;;;6.03;;
2728;SDS011;1372;47.956;7.830;2024-01-30T14:33:31;4.13;;;3.73;;
2728;SDS011;1372;47.956;7.830;2024-01-30T14:36:01;3.90;;;3.50;;
2728;SDS011;1372;47.956;7.830;2024-01-30T14:38:33;4.70;;;3.20;;
2728;SDS011;1372;47.956;7.830;2024-01-30T14:41:03;4.20;;;3.40;;
2728;SDS011;1372;47.956;7.830;2024-01-30T14:43:32;3.80;;;3.40;;
2728;SDS011;1372;47.956;7.830;2024-01-30T14:46:01;3.60;;;3.03;;
2728;SDS011;1372;47.956;7.830;2024-01-30T14:48:33;4.13;;;3.73;;
2728;SDS011;1372;47.956;7.830;2024-01-30T14:51:02;4.23;;;3.80;;
2728;SDS011;1372;47.956;7.830;2024-01-30T14:53:31;4.00;;;3.60;;
2728;SDS011;1372;47.956;7.830;2024-01-30T14:56:02;4.53;;;3.47;;
2728;SDS011;1372;47.956;7.830;2024-01-30T14:58:32;3.27;;;2.87;;
2728;SDS011;1372;47.956;7.830;2024-01-30T15:01:01;6.30;;;4.23;;
2728;SDS011;1372;47.956;7.830;2024-01-30T15:03:31;6.60;;;5.77;;
2728;SDS011;1372;47.956;7.830;2024-01-30T15:06:00;5.53;;;4.10;;
2728;SDS011;1372;47.956;7.830;2024-01-30T15:08:31;6.13;;;5.27;;
2728;SDS011;1372;47.956;7.830;2024-01-30T15:11:02;5.17;;;4.67;;
2728;SDS011;1372;47.956;7.830;2024-01-30T15:13:34;4.93;;;3.33;;
2728;SDS011;1372;47.956;7.830;2024-01-30T15:16:08;4.57;;;3.67;;
2728;SDS011;1372;47.956;7.830;2024-01-30T15:18:38;4.40;;;4.10;;
2728;SDS011;1372;47.956;7.830;2024-01-30T15:21:07;3.93;;;3.30;;
2728;SDS011;1372;47.956;7.830;2024-01-30T15:23:37;3.93;;;3.20;;
2728;SDS011;1372;47.956;7.830;2024-01-30T15:26:07;4.40;;;3.97;;
2728;SDS011;1372;47.956;7.830;2024-01-30T15:28:37;4.30;;;3.90;;
2728;SDS011;1372;47.956;7.830;2024-01-30T15:31:07;6.37;;;4.10;;
2728;SDS011;1372;47.956;7.830;2024-01-30T15:33:36;4.70;;;3.60;;
2728;SDS011;1372;47.956;7.830;2024-01-30T15:36:05;4.37;;;3.87;;